M I D A S
Marine Information and Data Acquisition System
Tripno 1668 of the Zeeleeuw from 2009-04-02 06:09:01 to 2009-04-02 15:49:45
Back to CruiseResearch ActivitiesStationsMapUnderway DataData graphs

EquipmentUnitsComment
TimeDGPSUTC
LatitudeDGPSDM.mWGS84
LongitudeDGPSDM.mWGS84
TemperatureSBE03/SBE38deg celciusITS90
ConductivitySBE21S/mITS90
SalinitySBE21 Practical Salinity Units
ChlorophylAChelsea fluorimeterg/lCalibrated in Aceton
Missing or incorrect values are displayed as -999
Sea surface data collected by the RV Zeeleeuw from 2009-04-02 05:58:47 to 2009-04-02 15:58:06
Time Latitude Longitude Temperature Conductivity Salinity ChlorophylA
2009-04-02 05:59:52 51°13.663 2°55.959 -999 0.091605 0.494489 -1.174688
2009-04-02 06:00:52 51°13.662 2°55.959 -999 0.091502 0.493921 -1.174688
2009-04-02 06:01:52 51°13.665 2°55.959 -999 0.091502 0.49393 -1.174688
2009-04-02 06:02:52 51°13.662 2°55.959 -999 0.091502 0.493956 -1.174688
2009-04-02 06:03:52 51°13.662 2°55.959 -999 0.091502 0.493981 -1.174688
2009-04-02 06:04:52 51°13.662 2°55.958 -999 0.091502 0.49399 -1.174688
2009-04-02 06:05:52 51°13.663 2°55.96 -999 0.091502 0.494015 -1.174688
2009-04-02 06:06:52 51°13.662 2°55.959 -999 0.091502 0.494033 -1.174688
2009-04-02 06:07:52 51°13.663 2°55.952 -999 0.091502 0.49405 -1.174688
2009-04-02 06:08:56 51°13.683 2°55.871 -999 0.091502 0.494058 -1.174688
2009-04-02 06:09:54 51°13.704 2°55.797 -999 0.091502 0.494075 -1.174688
2009-04-02 06:10:56 51°13.738 2°55.732 -999 0.091502 0.49411 -1.174688
2009-04-02 06:11:55 51°13.748 2°55.713 -999 0.091502 0.494144 -1.174688
2009-04-02 06:12:56 51°13.8 2°55.668 -999 0.091399 0.493567 -1.209513
2009-04-02 06:13:55 51°13.873 2°55.632 -999 0.091399 0.493601 -1.209513
2009-04-02 06:14:55 51°13.929 2°55.631 -999 0.091399 0.493627 -1.209513
2009-04-02 06:15:54 51°13.939 2°55.62 -999 0.091399 0.493635 -1.209513
2009-04-02 06:16:52 51°13.958 2°55.555 -999 0.091399 0.493661 -1.244337
2009-04-02 06:17:52 51°14.031 2°55.496 -999 0.091399 0.493712 -1.209513
2009-04-02 06:18:52 51°14.14 2°55.398 -999 0.091399 0.493729 -1.209513
2009-04-02 06:19:52 51°14.257 2°55.26 -999 0.091399 0.493789 -1.209513
2009-04-02 06:20:52 51°14.353 2°55.059 -999 0.091399 0.493781 -1.244337
2009-04-02 06:21:52 51°14.444 2°54.83 -999 0.091399 0.493832 -1.244337
2009-04-02 06:22:52 51°14.535 2°54.586 -999 0.091296 0.493264 -1.209513
2009-04-02 06:23:52 51°14.632 2°54.321 -999 1.788185 12.506088 14.739904
2009-04-02 06:24:52 51°14.735 2°54.054 -999 3.209789 29.133367 22.122603
2009-04-02 06:25:52 51°14.836 2°53.787 -999 3.238686 30.102238 20.137632
2009-04-02 06:26:52 51°14.918 2°53.505 -999 3.258569 30.483969 18.326782
2009-04-02 06:27:52 51°14.999 2°53.219 -999 3.241589 30.436634 22.958381
2009-04-02 06:28:52 51°15.085 2°52.937 -999 3.22523 30.353768 26.614906
2009-04-02 06:29:52 51°15.179 2°52.665 -999 3.222435 30.367195 23.759334
2009-04-02 06:30:52 51°15.267 2°52.39 -999 3.234135 30.512291 23.689686
2009-04-02 06:31:52 51°15.341 2°52.104 -999 3.241177 30.61293 23.654862
2009-04-02 06:32:52 51°15.41 2°51.817 -999 3.242627 30.658429 22.401196
2009-04-02 06:33:52 51°15.463 2°51.525 -999 3.249461 30.7348 20.834113
2009-04-02 06:34:52 51°15.518 2°51.228 -999 3.25205 30.760315 20.416225
2009-04-02 06:35:52 51°15.563 2°50.925 -999 3.25847 30.839639 19.650096
2009-04-02 06:36:51 51°15.638 2°50.644 -999 3.263958 30.885095 18.326782
2009-04-02 06:37:51 51°15.729 2°50.364 -999 3.276488 31.014845 17.073116
2009-04-02 06:38:52 51°15.806 2°50.07 -999 3.2885 31.134358 16.132866
2009-04-02 06:39:52 51°15.865 2°49.778 -999 3.304138 31.291118 14.8792
2009-04-02 06:40:52 51°15.898 2°49.477 -999 3.321847 31.472956 12.998701
2009-04-02 06:41:52 51°15.923 2°49.171 -999 3.358924 31.83697 10.49137
2009-04-02 06:42:52 51°15.945 2°48.865 -999 3.384196 32.098599 8.959111
2009-04-02 06:43:52 51°15.969 2°48.56 -999 3.395279 32.215248 8.26263
2009-04-02 06:44:52 51°15.997 2°48.255 -999 3.401598 32.29355 8.158158
2009-04-02 06:45:51 51°16.021 2°47.953 -999 3.401495 32.311819 8.192982
2009-04-02 06:46:51 51°16.047 2°47.645 -999 3.407813 32.378432 8.506398
2009-04-02 06:47:52 51°16.077 2°47.332 -999 3.411542 32.418599 8.297454
2009-04-02 06:48:52 51°16.105 2°47.028 -999 3.416721 32.463916 8.367102
2009-04-02 06:49:52 51°16.12 2°46.725 -999 3.421175 32.487186 8.297454
2009-04-02 06:50:52 51°16.054 2°46.45 -999 3.426665 32.509502 8.123334
2009-04-02 06:51:52 51°15.964 2°46.193 -999 3.437748 32.588112 7.635797
2009-04-02 06:52:52 51°15.881 2°45.933 -999 3.442203 32.626517 7.287557
2009-04-02 06:53:52 51°15.805 2°45.662 -999 3.442513 32.629787 7.322381
2009-04-02 06:54:52 51°15.742 2°45.383 -999 3.440234 32.618513 7.600973
2009-04-02 06:55:52 51°15.738 2°45.086 -999 3.441788 32.629783 7.775093
2009-04-02 06:56:52 51°15.826 2°44.812 -999 3.441788 32.619615 7.775093
2009-04-02 06:57:52 51°15.963 2°44.581 -999 3.446761 32.678729 7.705445
2009-04-02 06:58:52 51°16.11 2°44.364 -999 3.466547 32.884541 7.496501
2009-04-02 06:59:52 51°16.259 2°44.153 -999 3.474524 32.973733 7.008964
2009-04-02 07:00:52 51°16.408 2°43.942 -999 3.481465 33.056355 7.078612
2009-04-02 07:01:52 51°16.554 2°43.723 -999 3.476493 33.045999 7.113436
2009-04-02 07:02:52 51°16.699 2°43.504 -999 3.460436 32.932236 7.322381
2009-04-02 07:03:52 51°16.843 2°43.288 -999 3.440547 32.797379 7.809917
2009-04-02 07:04:52 51°16.985 2°43.064 -999 3.429464 32.743435 8.123334
2009-04-02 07:05:52 51°17.123 2°42.835 -999 3.423871 32.709857 8.471574
2009-04-02 07:06:52 51°17.261 2°42.599 -999 3.425528 32.738592 8.854639
2009-04-02 07:07:52 51°17.402 2°42.363 -999 3.436405 32.826467 8.784991
2009-04-02 07:08:52 51°17.545 2°42.126 -999 3.452875 32.957176 9.20288
2009-04-02 07:09:52 51°17.687 2°41.89 -999 3.457226 32.990349 8.541223
2009-04-02 07:10:52 51°17.833 2°41.659 -999 3.446142 32.903036 7.844741
2009-04-02 07:11:52 51°17.976 2°41.431 -999 3.459298 33.01317 7.357205
2009-04-02 07:12:52 51°18.114 2°41.202 -999 3.480639 33.222077 6.695548
2009-04-02 07:13:52 51°18.248 2°40.969 -999 3.484058 33.289661 6.939316
2009-04-02 07:14:52 51°18.383 2°40.735 -999 3.485508 33.319009 7.113436
2009-04-02 07:15:52 51°18.521 2°40.503 -999 3.492967 33.387749 6.904492
2009-04-02 07:16:52 51°18.654 2°40.271 -999 3.494625 33.402731 6.208011
2009-04-02 07:17:52 51°18.783 2°40.028 -999 3.498873 33.433846 5.964243
2009-04-02 07:18:52 51°18.913 2°39.785 -999 3.497008 33.421915 5.824946
2009-04-02 07:19:52 51°19.046 2°39.538 -999 3.496283 33.415963 5.720474
2009-04-02 07:20:52 51°19.177 2°39.291 -999 3.495661 33.411985 5.755298
2009-04-02 07:21:52 51°19.304 2°39.04 -999 3.502188 33.468173 5.68565
2009-04-02 07:22:52 51°19.422 2°38.78 -999 3.508508 33.523016 5.51153
2009-04-02 07:23:52 51°19.536 2°38.514 -999 3.510269 33.550491 5.650826
2009-04-02 07:24:52 51°19.645 2°38.239 -999 3.51058 33.564329 5.755298
2009-04-02 07:25:52 51°19.756 2°37.964 -999 3.508612 33.553072 5.790122
2009-04-02 07:26:52 51°19.869 2°37.695 -999 3.510166 33.566074 5.650826
2009-04-02 07:27:52 51°19.982 2°37.428 -999 3.51949 33.65902 5.372234
2009-04-02 07:28:52 51°20.093 2°37.158 -999 3.524774 33.716075 5.33741
2009-04-02 07:29:52 51°20.204 2°36.888 -999 3.525189 33.725777 5.616002
2009-04-02 07:30:52 51°20.313 2°36.62 -999 3.524774 33.724018 6.173187
2009-04-02 07:31:52 51°20.424 2°36.351 -999 3.526329 33.756453 7.252733
2009-04-02 07:32:52 51°20.534 2°36.081 -999 3.52664 33.771259 7.635797
2009-04-02 07:33:52 51°20.644 2°35.811 -999 3.524878 33.764011 7.600973
2009-04-02 07:34:52 51°20.757 2°35.547 -999 3.523946 33.755853 7.14826
2009-04-02 07:35:52 51°20.819 2°35.25 -999 3.525293 33.771079 6.521427
2009-04-02 07:36:52 51°20.863 2°34.943 -999 3.52436 33.763805 6.660724
2009-04-02 07:37:52 51°20.912 2°34.629 -999 3.519595 33.741364 7.043788
2009-04-02 07:38:52 51°20.967 2°34.317 -999 3.517834 33.735875 6.486603
2009-04-02 07:39:52 51°21.02 2°34.005 -999 3.518662 33.743824 6.068715
2009-04-02 07:40:52 51°21.095 2°33.705 -999 3.520216 33.756846 5.790122
2009-04-02 07:41:52 51°21.174 2°33.411 -999 3.524568 33.789929 5.093641
2009-04-02 07:42:52 51°21.25 2°33.115 -999 3.532753 33.870062 4.362336
2009-04-02 07:43:52 51°21.352 2°32.837 -999 3.542285 33.968116 4.22304
2009-04-02 07:44:52 51°21.514 2°32.644 -999 3.544357 33.991102 4.118568
2009-04-02 07:45:52 51°21.693 2°32.485 -999 3.545083 34.001512 4.118568
2009-04-02 07:46:52 51°21.869 2°32.322 -999 3.547362 34.02136 4.188216
2009-04-02 07:47:52 51°22.043 2°32.153 -999 3.548295 34.038446 4.153392
2009-04-02 07:48:52 51°22.223 2°32.013 -999 3.548606 34.037297 3.979271
2009-04-02 07:49:52 51°22.41 2°31.89 -999 3.546637 34.021656 3.770327
2009-04-02 07:50:52 51°22.595 2°31.765 -999 3.545912 34.015705 4.22304
2009-04-02 07:51:52 51°22.782 2°31.644 -999 3.54415 33.99781 4.466808
2009-04-02 07:52:52 51°22.97 2°31.525 -999 3.545705 34.017065 4.431984
2009-04-02 07:53:52 51°23.157 2°31.407 -999 3.548295 34.055422 4.118568
2009-04-02 07:54:52 51°23.328 2°31.255 -999 3.549331 34.085269 3.596207
2009-04-02 07:55:52 51°23.475 2°31.044 -999 3.550471 34.111776 3.387263
2009-04-02 07:56:52 51°23.583 2°30.816 -999 3.551404 34.135194 3.317614
2009-04-02 07:57:52 51°23.635 2°30.545 -999 3.552026 34.149021 3.178318
2009-04-02 07:58:52 51°23.675 2°30.309 -999 3.553476 34.162733 3.143494
2009-04-02 07:59:52 51°23.734 2°30.181 -999 3.555341 34.174586 3.28279
2009-04-02 08:00:51 51°23.79 2°30.185 -999 3.556067 34.190428 3.10867
2009-04-02 08:01:52 51°23.814 2°30.227 -999 3.556274 34.196241 3.178318
2009-04-02 08:02:51 51°23.816 2°30.245 -999 3.556378 34.200946 3.317614
2009-04-02 08:03:52 51°23.813 2°30.249 -999 3.556689 34.200673 3.456911
2009-04-02 08:04:52 51°23.811 2°30.25 -999 3.556896 34.20199 3.352439
2009-04-02 08:05:52 51°23.808 2°30.247 -999 3.557725 34.203658 3.28279
2009-04-02 08:06:52 51°23.805 2°30.244 -999 3.559175 34.203881 3.073846
2009-04-02 08:07:51 51°23.803 2°30.24 -999 3.560004 34.20555 3.10867
2009-04-02 08:08:52 51°23.801 2°30.237 -999 3.560211 34.205068 2.864902
2009-04-02 08:09:52 51°23.797 2°30.232 -999 3.560418 34.207282 2.864902
2009-04-02 08:10:52 51°23.794 2°30.227 -999 3.560522 34.205694 2.830078
2009-04-02 08:11:52 51°23.791 2°30.22 -999 3.549846 33.837615 3.039022
2009-04-02 08:12:52 51°23.79 2°30.213 -999 3.580102 34.053829 2.621133
2009-04-02 08:13:52 51°23.787 2°30.206 -999 3.571814 34.166679 2.551485
2009-04-02 08:14:51 51°23.784 2°30.201 -999 3.566634 34.175874 2.516661
2009-04-02 08:15:52 51°23.781 2°30.195 -999 3.563733 34.183451 2.272893
2009-04-02 08:16:52 51°23.778 2°30.187 -999 3.562697 34.18674 2.133597
2009-04-02 08:17:52 51°23.775 2°30.179 -999 3.562076 34.189971 2.168421
2009-04-02 08:18:52 51°23.773 2°30.171 -999 3.561454 34.193204 2.238069
2009-04-02 08:19:52 51°23.751 2°30.18 -999 3.562283 34.190389 2.447013
2009-04-02 08:20:52 51°23.688 2°30.16 -999 3.560936 34.194853 2.830078
2009-04-02 08:21:52 51°23.649 2°30.06 -999 3.559589 34.190342 2.830078
2009-04-02 08:22:52 51°23.66 2°29.986 -999 3.559175 34.185915 2.655957
2009-04-02 08:23:52 51°23.684 2°29.946 -999 3.558864 34.186186 2.830078
2009-04-02 08:24:52 51°23.7 2°29.919 -999 3.559071 34.184808 2.864902
2009-04-02 08:25:52 51°23.715 2°29.887 -999 3.559382 34.190822 3.073846
2009-04-02 08:26:52 51°23.724 2°29.862 -999 3.559797 34.193454 3.10867
2009-04-02 08:27:52 51°23.73 2°29.839 -999 3.560522 34.198507 3.073846
2009-04-02 08:28:52 51°23.737 2°29.816 -999 3.560522 34.202999 3.28279
2009-04-02 08:29:52 51°23.74 2°29.799 -999 3.560522 34.202999 3.178318
2009-04-02 08:30:52 51°23.737 2°29.781 -999 3.560833 34.204523 3.143494
2009-04-02 08:31:52 51°23.733 2°29.764 -999 3.560936 34.203833 3.456911
2009-04-02 08:32:52 51°23.729 2°29.748 -999 3.560936 34.203833 3.456911
2009-04-02 08:33:52 51°23.726 2°29.733 -999 3.560833 34.202726 3.073846
2009-04-02 08:34:52 51°23.719 2°29.726 -999 3.560833 34.199134 3.004198
2009-04-02 08:35:52 51°23.722 2°29.698 -999 3.560522 34.199406 3.28279
2009-04-02 08:36:52 51°23.735 2°29.667 -999 3.560729 34.198925 2.864902
2009-04-02 08:37:52 51°23.745 2°29.638 -999 3.560936 34.202935 3.735503
2009-04-02 08:38:52 51°23.786 2°29.631 -999 3.561662 34.207089 3.28279
2009-04-02 08:39:52 51°23.802 2°29.676 -999 3.561765 34.213587 3.317614
2009-04-02 08:40:52 51°23.779 2°29.715 -999 3.561662 34.216074 3.247966
2009-04-02 08:41:51 51°23.763 2°29.758 -999 3.561351 34.212753 2.76043
2009-04-02 08:42:52 51°23.751 2°29.786 -999 3.560315 34.206175 2.655957
2009-04-02 08:43:52 51°23.742 2°29.795 -999 3.559486 34.202709 2.864902
2009-04-02 08:44:52 51°23.734 2°29.793 -999 3.561558 34.190721 2.063949
2009-04-02 08:45:52 51°23.727 2°29.784 -999 3.563423 34.19179 1.82018
2009-04-02 08:46:52 51°23.72 2°29.771 -999 3.561869 34.191347 1.750532
2009-04-02 08:47:52 51°23.709 2°29.77 -999 3.560833 34.187463 1.715708
2009-04-02 08:48:52 51°23.699 2°29.782 -999 3.560211 34.186209 2.098773
2009-04-02 08:49:52 51°23.692 2°29.785 -999 3.559382 34.185435 1.924652
2009-04-02 08:50:52 51°23.684 2°29.791 -999 3.560832 34.182977 1.785356
2009-04-02 08:51:52 51°23.688 2°29.82 -999 3.560314 34.186418 1.959476
2009-04-02 08:52:52 51°23.709 2°29.83 -999 3.558657 34.183972 2.342541
2009-04-02 08:53:52 51°23.73 2°29.809 -999 3.55845 34.18535 2.655957
2009-04-02 08:54:52 51°23.737 2°29.786 -999 3.558657 34.187564 2.969374
2009-04-02 08:55:52 51°23.738 2°29.762 -999 3.559071 34.187502 3.004198
2009-04-02 08:56:52 51°23.733 2°29.74 -999 3.559278 34.18792 3.039022
2009-04-02 08:57:51 51°23.726 2°29.72 -999 3.559382 34.187231 2.621133
2009-04-02 08:58:52 51°23.72 2°29.7 -999 3.559175 34.186813 3.28279
2009-04-02 08:59:52 51°23.718 2°29.671 -999 3.558864 34.187982 3.004198
2009-04-02 09:00:52 51°23.737 2°29.632 -999 3.558968 34.189089 2.830078
2009-04-02 09:01:51 51°23.767 2°29.614 -999 3.559796 34.185374 2.725606
2009-04-02 09:02:52 51°23.789 2°29.643 -999 3.5599 34.18648 2.655957
2009-04-02 09:03:52 51°23.774 2°29.697 -999 3.560729 34.194435 2.655957
2009-04-02 09:04:52 51°23.76 2°29.748 -999 3.560211 34.193391 2.272893
2009-04-02 09:05:52 51°23.746 2°29.784 -999 3.559589 34.19124 2.133597
2009-04-02 09:06:52 51°23.736 2°29.819 -999 3.560004 34.188484 2.063949
2009-04-02 09:07:52 51°23.727 2°29.832 -999 3.559693 34.190551 2.168421
2009-04-02 09:08:52 51°23.716 2°29.832 -999 3.559486 34.191929 2.168421
2009-04-02 09:09:51 51°23.706 2°29.821 -999 3.560418 34.188423 2.029124
2009-04-02 09:10:51 51°23.695 2°29.805 -999 3.5599 34.192765 1.889828
2009-04-02 09:11:51 51°23.682 2°29.787 -999 3.560211 34.1898 1.750532
2009-04-02 09:12:52 51°23.665 2°29.785 -999 3.562076 34.186383 1.785356
2009-04-02 09:13:52 51°23.65 2°29.805 -999 3.560729 34.188152 1.855004
2009-04-02 09:14:52 51°23.647 2°29.829 -999 3.560211 34.185312 1.889828
2009-04-02 09:15:52 51°23.665 2°29.839 -999 3.560522 34.18235 1.82018
2009-04-02 09:16:52 51°23.69 2°29.817 -999 3.560004 34.183099 2.203245
2009-04-02 09:17:52 51°23.713 2°29.813 -999 3.560211 34.185312 2.447013
2009-04-02 09:18:52 51°23.728 2°29.807 -999 3.560625 34.187045 2.272893
2009-04-02 09:19:51 51°23.742 2°29.801 -999 3.560522 34.189529 2.795254
2009-04-02 09:20:51 51°23.747 2°29.791 -999 3.560315 34.191804 2.899726
2009-04-02 09:21:51 51°23.743 2°29.771 -999 3.560004 34.192076 2.795254
2009-04-02 09:22:52 51°23.74 2°29.767 -999 3.560004 34.192974 3.004198
2009-04-02 09:23:52 51°23.726 2°29.777 -999 3.5599 34.192765 3.213142
2009-04-02 09:24:52 51°23.713 2°29.788 -999 3.559279 34.193308 2.272893
2009-04-02 09:25:52 51°23.699 2°29.786 -999 3.560107 34.190489 2.098773
2009-04-02 09:26:52 51°23.684 2°29.774 -999 3.561351 34.186714 1.680884
2009-04-02 09:27:52 51°23.669 2°29.755 -999 3.56363 34.189517 1.506764
2009-04-02 09:28:51 51°23.655 2°29.733 -999 3.562697 34.18943 1.437116
2009-04-02 09:29:51 51°23.631 2°29.74 -999 3.561972 34.187071 1.332643
2009-04-02 09:30:51 51°23.648 2°29.821 -999 3.561351 34.185817 1.64606
2009-04-02 09:31:52 51°23.726 2°29.946 -999 3.561143 34.183604 1.855004
2009-04-02 09:32:52 51°23.816 2°30.137 -999 3.561247 34.189197 2.063949
2009-04-02 09:33:52 51°23.922 2°30.369 -999 3.561351 34.192098 2.029124
2009-04-02 09:34:52 51°24.033 2°30.601 -999 3.561454 34.190512 1.9943
2009-04-02 09:35:52 51°24.145 2°30.832 -999 3.561558 34.187132 1.959476
2009-04-02 09:36:52 51°24.255 2°31.063 -999 3.561558 34.180853 1.889828
2009-04-02 09:37:52 51°24.365 2°31.295 -999 3.560625 34.175383 1.889828
2009-04-02 09:38:52 51°24.477 2°31.525 -999 3.559589 34.167909 1.889828
2009-04-02 09:39:52 51°24.59 2°31.757 -999 3.558657 34.166922 1.924652
2009-04-02 09:40:52 51°24.699 2°31.987 -999 3.556481 34.167908 2.307717
2009-04-02 09:41:52 51°24.808 2°32.215 -999 3.554823 34.153786 2.203245
2009-04-02 09:42:51 51°24.917 2°32.44 -999 3.552751 34.140616 2.447013
2009-04-02 09:43:52 51°25.027 2°32.668 -999 3.552233 34.129698 2.272893
2009-04-02 09:44:52 51°25.14 2°32.891 -999 3.551404 34.125326 2.377365
2009-04-02 09:45:52 51°25.25 2°33.119 -999 3.550886 34.121584 2.272893
2009-04-02 09:46:52 51°25.363 2°33.344 -999 3.550886 34.120687 2.307717
2009-04-02 09:47:52 51°25.477 2°33.566 -999 3.549435 34.114153 2.447013
2009-04-02 09:48:52 51°25.59 2°33.792 -999 3.547985 34.106721 2.447013
2009-04-02 09:49:52 51°25.701 2°34.018 -999 3.546742 34.103295 2.586309
2009-04-02 09:50:52 51°25.809 2°34.245 -999 3.546431 34.092798 2.481837
2009-04-02 09:51:51 51°25.905 2°34.481 -999 3.547052 34.084206 2.342541
2009-04-02 09:52:52 51°26.003 2°34.725 -999 3.543115 34.050196 2.377365
2009-04-02 09:53:52 51°26.099 2°34.968 -999 3.539074 34.023123 2.342541
2009-04-02 09:54:52 51°26.196 2°35.213 -999 3.53752 34.018145 2.586309
2009-04-02 09:55:52 51°26.289 2°35.46 -999 3.535345 34.020846 2.864902
2009-04-02 09:56:51 51°26.384 2°35.696 -999 3.533273 34.012113 3.143494
2009-04-02 09:57:52 51°26.481 2°35.94 -999 3.531097 33.996891 3.10867
2009-04-02 09:58:52 51°26.577 2°36.184 -999 3.530682 33.993351 3.143494
2009-04-02 09:59:52 51°26.673 2°36.432 -999 3.528507 33.98081 3.178318
2009-04-02 10:00:52 51°26.767 2°36.679 -999 3.529957 33.988275 2.864902
2009-04-02 10:01:52 51°26.862 2°36.925 -999 3.529957 33.990067 2.621133
2009-04-02 10:02:52 51°26.953 2°37.166 -999 3.52975 33.989641 2.795254
2009-04-02 10:03:52 51°27.049 2°37.414 -999 3.529232 33.993056 2.76043
2009-04-02 10:04:52 51°27.143 2°37.657 -999 3.528507 33.996944 2.899726
2009-04-02 10:05:52 51°27.239 2°37.904 -999 3.528818 33.994893 2.621133
2009-04-02 10:06:52 51°27.333 2°38.149 -999 3.529232 33.993056 2.481837
2009-04-02 10:07:52 51°27.426 2°38.39 -999 3.530061 34.003725 2.342541
2009-04-02 10:08:52 51°27.52 2°38.631 -999 3.530475 34.00906 2.307717
2009-04-02 10:09:52 51°27.615 2°38.876 -999 3.530683 34.014867 2.238069
2009-04-02 10:10:52 51°27.709 2°39.122 -999 3.530994 34.015505 2.098773
2009-04-02 10:11:52 51°27.804 2°39.367 -999 3.532651 34.027876 2.133597
2009-04-02 10:12:52 51°27.902 2°39.614 -999 3.533998 34.0423 2.029124
2009-04-02 10:13:52 51°27.999 2°39.861 -999 3.534516 34.042463 2.029124
2009-04-02 10:14:52 51°28.094 2°40.11 -999 3.535759 34.045904 2.133597
2009-04-02 10:15:52 51°28.189 2°40.357 -999 3.536485 34.047387 2.238069
2009-04-02 10:16:52 51°28.285 2°40.602 -999 3.53721 34.044386 2.203245
2009-04-02 10:17:52 51°28.379 2°40.848 -999 3.539282 34.051315 2.168421
2009-04-02 10:18:52 51°28.454 2°41.109 -999 3.542286 34.070901 2.238069
2009-04-02 10:19:52 51°28.53 2°41.37 -999 3.541458 34.06114 2.063949
2009-04-02 10:20:52 51°28.606 2°41.63 -999 3.542183 34.069792 1.959476
2009-04-02 10:21:52 51°28.682 2°41.892 -999 3.546845 34.119661 1.959476
2009-04-02 10:22:52 51°28.76 2°42.152 -999 3.549747 34.156988 1.959476
2009-04-02 10:23:52 51°28.854 2°42.394 -999 3.548918 34.155312 1.9943
2009-04-02 10:24:52 51°28.976 2°42.61 -999 3.547882 34.146921 2.029124
2009-04-02 10:25:52 51°29.097 2°42.823 -999 3.547778 34.157504 2.168421
2009-04-02 10:26:52 51°29.212 2°43.04 -999 3.546431 34.161082 2.272893
2009-04-02 10:27:52 51°29.311 2°43.275 -999 3.542909 34.141349 2.621133
2009-04-02 10:28:52 51°29.385 2°43.529 -999 3.537418 34.115805 2.864902
2009-04-02 10:29:52 51°29.436 2°43.8 -999 3.534413 34.077291 2.899726
2009-04-02 10:30:52 51°29.462 2°44.085 -999 3.534516 34.055032 2.899726
2009-04-02 10:31:52 51°29.485 2°44.37 -999 3.533066 34.038596 2.795254
2009-04-02 10:32:52 51°29.512 2°44.654 -999 3.529957 34.008893 2.969374
2009-04-02 10:33:52 51°29.537 2°44.937 -999 3.522601 33.943545 3.422087
2009-04-02 10:34:52 51°29.563 2°45.218 -999 3.517732 33.905705 3.596207
2009-04-02 10:35:52 51°29.593 2°45.496 -999 3.514417 33.886289 3.805151
2009-04-02 10:36:52 51°29.622 2°45.775 -999 3.51193 33.867692 4.014096
2009-04-02 10:37:52 51°29.658 2°46.048 -999 3.509029 33.838388 4.014096
2009-04-02 10:38:52 51°29.697 2°46.321 -999 3.506439 33.81867 4.431984
2009-04-02 10:39:52 51°29.735 2°46.595 -999 3.503745 33.778194 4.466808
2009-04-02 10:40:52 51°29.772 2°46.871 -999 3.502606 33.763309 4.640929
2009-04-02 10:41:52 51°29.809 2°47.146 -999 3.500948 33.733078 5.058817
2009-04-02 10:42:52 51°29.849 2°47.424 -999 3.496493 33.696946 5.616002
2009-04-02 10:43:52 51°29.888 2°47.704 -999 3.489241 33.653069 5.894594
2009-04-02 10:44:52 51°29.933 2°47.979 -999 3.479503 33.586027 6.242835
2009-04-02 10:45:52 51°29.978 2°48.253 -999 3.475463 33.550695 6.869668
2009-04-02 10:46:52 51°30.02 2°48.527 -999 3.476603 33.555809 7.043788
2009-04-02 10:47:52 51°30.063 2°48.802 -999 3.479089 33.554936 7.252733
2009-04-02 10:48:52 51°30.106 2°49.074 -999 3.478053 33.530533 7.217908
2009-04-02 10:49:53 51°30.153 2°49.351 -999 3.477949 33.529423 7.217908
2009-04-02 10:50:52 51°30.195 2°49.62 -999 3.476291 33.517874 7.461677
2009-04-02 10:51:52 51°30.229 2°49.836 -999 3.474012 33.489919 7.496501
2009-04-02 10:52:52 51°30.273 2°49.858 -999 3.472355 33.476594 7.775093
2009-04-02 10:53:53 51°30.318 2°49.795 -999 3.472251 33.470174 9.272528
2009-04-02 10:54:52 51°30.366 2°49.737 -999 3.472873 33.472406 7.984038
2009-04-02 10:55:52 51°30.415 2°49.694 -999 3.473494 33.482602 7.426853
2009-04-02 10:56:52 51°30.463 2°49.663 -999 3.473391 33.488575 7.357205
2009-04-02 10:57:52 51°30.479 2°49.632 -999 3.474219 33.482401 7.357205
2009-04-02 10:58:52 51°30.478 2°49.595 -999 3.474634 33.492149 8.819815
2009-04-02 10:59:52 51°30.468 2°49.552 -999 3.474841 33.498795 10.212777
2009-04-02 11:00:53 51°30.497 2°49.495 -999 3.475048 33.498357 9.655592
2009-04-02 11:01:52 51°30.552 2°49.461 -999 3.476499 33.512118 7.357205
2009-04-02 11:02:52 51°30.593 2°49.499 -999 3.477845 33.527427 6.834844
2009-04-02 11:03:52 51°30.617 2°49.602 -999 3.478467 33.545614 7.461677
2009-04-02 11:04:52 51°30.622 2°49.71 -999 3.47826 33.54783 6.451779
2009-04-02 11:05:52 51°30.621 2°49.808 -999 3.478053 33.536739 5.68565
2009-04-02 11:06:52 51°30.62 2°49.902 -999 3.477535 33.527644 5.650826
2009-04-02 11:07:52 51°30.618 2°49.996 -999 3.476809 33.520763 5.85977
2009-04-02 11:08:52 51°30.618 2°50.089 -999 3.476084 33.506794 5.824946
2009-04-02 11:09:52 51°30.617 2°50.184 -999 3.474841 33.480207 5.964243
2009-04-02 11:10:52 51°30.616 2°50.275 -999 3.473494 33.457836 6.208011
2009-04-02 11:11:52 51°30.616 2°50.367 -999 3.471215 33.427268 6.277659
2009-04-02 11:12:52 51°30.615 2°50.461 -999 3.469143 33.404223 6.416955
2009-04-02 11:13:52 51°30.619 2°50.554 -999 3.46676 33.386674 6.6259
2009-04-02 11:14:52 51°30.627 2°50.643 -999 3.464378 33.372646 6.80002
2009-04-02 11:15:52 51°30.635 2°50.728 -999 3.462927 33.3633 6.869668
2009-04-02 11:16:52 51°30.639 2°50.805 -999 3.461788 33.357277 6.939316
2009-04-02 11:17:52 51°30.646 2°50.891 -999 3.460648 33.351253 6.939316
2009-04-02 11:18:52 51°30.654 2°50.984 -999 3.460027 33.349008 6.904492
2009-04-02 11:19:52 51°30.661 2°51.078 -999 3.459405 33.345881 6.904492
2009-04-02 11:20:52 51°30.669 2°51.173 -999 3.458991 33.341445 6.904492
2009-04-02 11:21:52 51°30.684 2°51.257 -999 3.457955 33.339172 7.043788
2009-04-02 11:22:52 51°30.714 2°51.323 -999 3.457955 33.340054 7.043788
2009-04-02 11:23:52 51°30.754 2°51.38 -999 3.458266 33.345147 7.322381
2009-04-02 11:24:52 51°30.794 2°51.437 -999 3.459302 33.353594 8.645695
2009-04-02 11:25:52 51°30.832 2°51.494 -999 3.461477 33.355714 7.879566
2009-04-02 11:26:52 51°30.873 2°51.54 -999 3.458784 33.327768 7.461677
2009-04-02 11:27:52 51°30.922 2°51.577 -999 3.460959 33.342237 9.063583
2009-04-02 11:28:52 51°30.972 2°51.619 -999 3.46013 33.323681 10.700314
2009-04-02 11:29:52 51°31.019 2°51.66 -999 3.461995 33.337462 9.411824
2009-04-02 11:30:52 51°31.066 2°51.7 -999 3.463652 33.336699 8.993935
2009-04-02 11:31:52 51°31.114 2°51.743 -999 3.464895 33.336788 9.098407
2009-04-02 11:32:52 51°31.161 2°51.785 -999 3.464688 33.332814 9.690416
2009-04-02 11:33:52 51°31.209 2°51.825 -999 3.464895 33.335908 9.063583
2009-04-02 11:34:52 51°31.26 2°51.844 -999 3.467589 33.377025 8.053686
2009-04-02 11:35:52 51°31.308 2°51.852 -999 3.466657 33.382038 9.969009
2009-04-02 11:36:52 51°31.357 2°51.856 -999 3.466346 33.397239 9.446648
2009-04-02 11:37:52 51°31.407 2°51.86 -999 3.466346 33.392826 9.620768
2009-04-02 11:38:52 51°31.446 2°51.878 -999 3.465207 33.406233 8.367102
2009-04-02 11:39:52 51°31.468 2°51.887 -999 3.467278 33.393979 9.063583
2009-04-02 11:40:52 51°31.479 2°51.89 -999 3.467175 33.390225 9.899361
2009-04-02 11:41:52 51°31.483 2°51.888 -999 3.465931 33.37869 8.854639
2009-04-02 11:42:52 51°31.484 2°51.888 -999 3.468314 33.394476 8.471574
2009-04-02 11:43:52 51°31.475 2°51.896 -999 3.469039 33.395177 9.168055
2009-04-02 11:44:52 51°31.447 2°51.897 -999 3.4679 33.3971 9.098407
2009-04-02 11:45:52 51°31.416 2°51.884 -999 3.4708 33.384925 8.541223
2009-04-02 11:46:52 51°31.386 2°51.87 -999 3.471111 33.379442 6.660724
2009-04-02 11:47:52 51°31.362 2°51.908 -999 3.470178 33.382686 6.80002
2009-04-02 11:48:52 51°31.351 2°52.023 -999 3.4679 33.385636 6.834844
2009-04-02 11:49:52 51°31.337 2°52.203 -999 3.466035 33.363053 7.008964
2009-04-02 11:50:52 51°31.315 2°52.41 -999 3.46417 33.364258 7.392029
2009-04-02 11:51:52 51°31.291 2°52.563 -999 3.458267 33.428296 10.003833
2009-04-02 11:52:53 51°31.271 2°52.613 -999 3.456299 33.404506 9.342176
2009-04-02 11:53:52 51°31.248 2°52.63 -999 3.455263 33.407566 10.456545
2009-04-02 11:54:53 51°31.235 2°52.643 -999 3.45547 33.378786 8.680519
2009-04-02 11:55:53 51°31.209 2°52.623 -999 3.45547 33.384982 10.700314
2009-04-02 11:56:53 51°31.189 2°52.602 -999 3.455677 33.370391 12.963877
2009-04-02 11:57:52 51°31.188 2°52.597 -999 3.456402 33.368441 13.06835
2009-04-02 11:58:52 51°31.189 2°52.594 -999 3.455366 33.390954 12.824581
2009-04-02 11:59:53 51°31.188 2°52.596 -999 3.454641 33.406211 13.103174
2009-04-02 12:00:53 51°31.187 2°52.598 -999 3.452984 33.383093 9.899361
2009-04-02 12:01:52 51°31.186 2°52.598 -999 3.454537 33.367014 9.969009
2009-04-02 12:02:53 51°31.188 2°52.597 -999 3.454951 33.344056 9.342176
2009-04-02 12:03:52 51°31.188 2°52.595 -999 3.454952 33.367036 11.675387
2009-04-02 12:04:52 51°31.187 2°52.598 -999 3.453191 33.372032 10.83961
2009-04-02 12:05:52 51°31.186 2°52.599 -999 3.452466 33.369561 11.396795
2009-04-02 12:06:53 51°31.188 2°52.596 -999 3.451223 33.381904 11.048554
2009-04-02 12:07:52 51°31.19 2°52.592 -999 3.450291 33.38164 12.162924
2009-04-02 12:08:53 51°31.19 2°52.591 -999 3.44998 33.386283 12.963877
2009-04-02 12:09:53 51°31.188 2°52.595 -999 3.446769 33.391701 14.113071
2009-04-02 12:10:52 51°31.188 2°52.595 -999 3.448219 33.385987 14.287191
2009-04-02 12:11:53 51°31.188 2°52.596 -999 3.449048 33.373603 14.252367
2009-04-02 12:12:53 51°31.188 2°52.594 -999 3.44998 33.36412 14.496136
2009-04-02 12:13:53 51°31.187 2°52.595 -999 3.450083 33.364347 14.496136
2009-04-02 12:14:52 51°31.186 2°52.598 -999 3.45029 33.363915 14.426488
2009-04-02 12:15:53 51°31.186 2°52.598 -999 3.45029 33.36923 15.157793
2009-04-02 12:16:53 51°31.187 2°52.596 -999 3.450394 33.373888 15.923922
2009-04-02 12:17:52 51°31.188 2°52.595 -999 3.450808 33.378339 16.098042
2009-04-02 12:18:53 51°31.187 2°52.597 -999 3.451948 33.370199 16.515931
2009-04-02 12:19:53 51°31.186 2°52.598 -999 3.453398 33.36806 16.098042
2009-04-02 12:20:53 51°31.186 2°52.598 -999 3.455055 33.367263 15.714978
2009-04-02 12:21:52 51°31.187 2°52.596 -999 3.455573 33.362206 15.714978
2009-04-02 12:22:53 51°31.187 2°52.596 -999 3.454641 33.36901 15.540857
2009-04-02 12:23:52 51°31.185 2°52.601 -999 3.449669 33.361668 15.297089
2009-04-02 12:24:53 51°31.185 2°52.602 -999 3.446769 33.357089 15.889098
2009-04-02 12:25:53 51°31.186 2°52.597 -999 3.446458 33.347545 15.680154
2009-04-02 12:26:53 51°31.189 2°52.594 -999 3.445422 33.345274 16.132866
2009-04-02 12:27:53 51°31.188 2°52.595 -999 3.443972 33.349187 16.585579
2009-04-02 12:28:53 51°31.187 2°52.598 -999 3.443143 33.346484 16.724875
2009-04-02 12:29:53 51°31.187 2°52.597 -999 3.442936 33.342482 16.341811
2009-04-02 12:30:52 51°31.188 2°52.594 -999 3.442522 33.344234 16.550755
2009-04-02 12:31:53 51°31.189 2°52.592 -999 3.442004 33.344873 16.829347
2009-04-02 12:32:52 51°31.186 2°52.598 -999 3.4419 33.349083 17.630301
2009-04-02 12:33:52 51°31.185 2°52.601 -999 3.441486 33.350838 17.45618
2009-04-02 12:34:53 51°31.186 2°52.598 -999 3.441175 33.35815 17.351708
2009-04-02 12:35:52 51°31.188 2°52.593 -999 3.44045 33.361004 17.630301
2009-04-02 12:36:53 51°31.186 2°52.596 -999 3.44014 33.364769 17.421356
2009-04-02 12:37:53 51°31.185 2°52.599 -999 3.439829 33.367645 18.187485
2009-04-02 12:38:53 51°31.185 2°52.599 -999 3.439725 33.369197 17.908893
2009-04-02 12:39:53 51°31.186 2°52.598 -999 3.439415 33.372076 18.257134
2009-04-02 12:40:53 51°31.184 2°52.599 -999 3.439208 33.374292 18.39643
2009-04-02 12:41:53 51°31.185 2°52.598 -999 3.439 33.36939 17.769597
2009-04-02 12:42:53 51°31.185 2°52.598 -999 3.438793 33.367158 17.560652
2009-04-02 12:43:53 51°31.185 2°52.598 -999 3.438793 33.365379 18.117837
2009-04-02 12:44:52 51°31.187 2°52.599 -999 3.438586 33.366704 18.431254
2009-04-02 12:45:53 51°31.194 2°52.605 -999 3.438483 33.370037 19.336679
2009-04-02 12:46:53 51°31.201 2°52.61 -999 3.438068 33.37002 19.998336
2009-04-02 12:47:53 51°31.209 2°52.617 -999 3.437965 33.368904 19.336679
2009-04-02 12:48:53 51°31.213 2°52.62 -999 3.437861 33.366897 18.291958
2009-04-02 12:49:53 51°31.2 2°52.61 -999 3.438068 33.356676 17.630301
2009-04-02 12:50:53 51°31.173 2°52.592 -999 3.438172 33.356014 18.326782
2009-04-02 12:51:53 51°31.141 2°52.567 -999 3.437757 33.359553 19.441151
2009-04-02 12:52:52 51°31.109 2°52.537 -999 3.438793 33.350265 15.331913
2009-04-02 12:53:52 51°31.077 2°52.506 -999 3.454951 33.344056 10.177953
2009-04-02 12:54:53 51°31.045 2°52.475 -999 3.449669 33.367871 10.177953
2009-04-02 12:55:53 51°31.015 2°52.446 -999 3.446665 33.359522 10.108305
2009-04-02 12:56:53 51°30.984 2°52.416 -999 3.445422 33.363009 9.864537
2009-04-02 12:57:53 51°30.953 2°52.386 -999 3.44449 33.371621 10.143129
2009-04-02 12:58:53 51°30.924 2°52.356 -999 3.441797 33.379063 10.282425
2009-04-02 12:59:53 51°30.893 2°52.326 -999 3.441694 33.37528 9.133231
2009-04-02 13:00:53 51°30.863 2°52.295 -999 3.442419 33.376865 9.620768
2009-04-02 13:01:52 51°30.829 2°52.277 -999 3.443454 33.382685 9.72524
2009-04-02 13:02:53 51°30.819 2°52.344 -999 3.441383 33.382605 11.710211
2009-04-02 13:03:53 51°30.87 2°52.515 -999 3.439725 33.370976 13.660358
2009-04-02 13:04:53 51°30.932 2°52.72 -999 3.438482 33.361141 13.869303
2009-04-02 13:05:53 51°31.003 2°52.942 -999 3.437447 33.348202 14.774728
2009-04-02 13:06:53 51°31.081 2°53.185 -999 3.435892 33.31459 17.038292
2009-04-02 13:07:53 51°31.164 2°53.425 -999 3.433924 33.281874 16.864171
2009-04-02 13:08:53 51°31.256 2°53.657 -999 3.433096 33.290687 18.152661
2009-04-02 13:09:52 51°31.346 2°53.884 -999 3.432267 33.295959 18.257134
2009-04-02 13:10:52 51°31.437 2°54.113 -999 3.432578 33.291319 17.386532
2009-04-02 13:11:52 51°31.529 2°54.34 -999 3.431645 33.264435 16.794523
2009-04-02 13:12:52 51°31.621 2°54.57 -999 3.431127 33.238498 16.759699
2009-04-02 13:13:53 51°31.712 2°54.805 -999 3.430609 33.247087 16.620403
2009-04-02 13:14:52 51°31.8 2°55.03 -999 3.430402 33.239546 16.306987
2009-04-02 13:15:53 51°31.862 2°55.2 -999 3.429366 33.243449 15.436385
2009-04-02 13:16:53 51°31.896 2°55.306 -999 3.427295 33.222921 14.983672
2009-04-02 13:17:53 51°31.916 2°55.381 -999 3.429469 33.174755 13.381766
2009-04-02 13:18:53 51°31.943 2°55.376 -999 3.428744 33.150228 14.914024
2009-04-02 13:19:53 51°31.94 2°55.324 -999 3.428122 33.157648 17.839245
2009-04-02 13:20:53 51°31.923 2°55.281 -999 3.428744 33.20315 19.406327
2009-04-02 13:21:53 51°31.901 2°55.239 -999 3.428227 33.214374 21.530595
2009-04-02 13:22:53 51°31.874 2°55.203 -999 3.428745 33.211104 22.087779
2009-04-02 13:23:53 51°31.842 2°55.17 -999 3.429159 33.208489 22.575316
2009-04-02 13:24:53 51°31.81 2°55.142 -999 3.429159 33.204954 21.32165
2009-04-02 13:25:52 51°31.783 2°55.078 -999 3.428952 33.208029 23.132501
2009-04-02 13:26:52 51°31.719 2°55.012 -999 3.428952 33.230137 21.252002
2009-04-02 13:27:53 51°31.655 2°55.014 -999 3.428434 33.237842 17.525828
2009-04-02 13:28:53 51°31.614 2°55.006 -999 3.429159 33.226173 16.098042
2009-04-02 13:29:53 51°31.577 2°54.994 -999 3.429159 33.220865 16.655227
2009-04-02 13:30:53 51°31.545 2°54.978 -999 3.430091 33.211443 14.182719
2009-04-02 13:31:53 51°31.514 2°54.958 -999 3.432577 33.21873 12.197748
2009-04-02 13:32:53 51°31.483 2°54.937 -999 3.43237 33.225338 14.008599
2009-04-02 13:33:53 51°31.451 2°54.916 -999 3.433095 33.228713 11.048554
2009-04-02 13:34:52 51°31.42 2°54.894 -999 3.431956 33.23768 11.327147
2009-04-02 13:35:53 51°31.388 2°54.87 -999 3.432059 33.229952 10.49137
2009-04-02 13:36:53 51°31.358 2°54.845 -999 3.433406 33.237356 11.327147
2009-04-02 13:37:53 51°31.327 2°54.818 -999 3.431127 33.249119 11.187851
2009-04-02 13:38:53 51°31.297 2°54.791 -999 3.431438 33.247151 10.282425
2009-04-02 13:39:53 51°31.266 2°54.765 -999 3.432784 33.246592 10.630666
2009-04-02 13:40:53 51°31.236 2°54.74 -999 3.431542 33.253577 11.988804
2009-04-02 13:41:53 51°31.206 2°54.715 -999 3.431852 33.245413 10.83961
2009-04-02 13:42:53 51°31.176 2°54.692 -999 3.432681 33.251672 13.834479
2009-04-02 13:43:53 51°31.145 2°54.667 -999 3.430609 33.249743 12.337044
2009-04-02 13:44:53 51°31.115 2°54.644 -999 3.43237 33.241251 10.108305
2009-04-02 13:45:53 51°31.084 2°54.62 -999 3.432784 33.247477 13.695182
2009-04-02 13:46:52 51°31.053 2°54.601 -999 3.430609 33.249743 12.267396
2009-04-02 13:47:53 51°31.021 2°54.631 -999 3.432992 33.252359 14.426488
2009-04-02 13:48:53 51°31.037 2°54.67 -999 3.430713 33.256172 17.003468
2009-04-02 13:49:53 51°31.152 2°54.749 -999 3.429988 33.245711 19.615272
2009-04-02 13:50:53 51°31.283 2°54.866 -999 3.429573 33.23063 20.97341
2009-04-02 13:51:53 51°31.415 2°54.988 -999 3.42947 33.223324 20.276929
2009-04-02 13:52:52 51°31.541 2°55.107 -999 3.42802 33.236039 20.102808
2009-04-02 13:53:53 51°31.636 2°55.19 -999 3.427088 33.248151 19.85904
2009-04-02 13:54:53 51°31.671 2°55.213 -999 3.426259 33.238338 16.16769
2009-04-02 13:55:53 51°31.68 2°55.234 -999 3.426052 33.239652 17.943717
2009-04-02 13:56:53 51°31.681 2°55.239 -999 3.426466 33.221968 17.003468
2009-04-02 13:57:53 51°31.678 2°55.236 -999 3.426259 33.240111 20.729641
2009-04-02 13:58:53 51°31.67 2°55.23 -999 3.425534 33.243825 21.043058
2009-04-02 13:59:52 51°31.663 2°55.226 -999 3.423877 33.217106 20.381401
2009-04-02 14:00:53 51°31.665 2°55.241 -999 3.426052 33.239652 20.311753
2009-04-02 14:01:53 51°31.703 2°55.284 -999 3.425845 33.24008 19.232207
2009-04-02 14:02:53 51°31.756 2°55.338 -999 3.426052 33.244085 17.212412
2009-04-02 14:03:53 51°31.815 2°55.401 -999 3.425741 33.24251 17.45618
2009-04-02 14:04:53 51°31.856 2°55.401 -999 3.425948 33.227018 15.331913
2009-04-02 14:05:53 51°31.859 2°55.354 -999 3.426673 33.225083 17.10794
2009-04-02 14:06:53 51°31.847 2°55.307 -999 3.426259 33.24543 17.595476
2009-04-02 14:07:53 51°31.83 2°55.272 -999 3.426259 33.23568 17.769597
2009-04-02 14:08:53 51°31.809 2°55.238 -999 3.427502 33.218956 17.804421
2009-04-02 14:09:53 51°31.784 2°55.213 -999 3.428331 33.233185 20.311753
2009-04-02 14:10:53 51°31.758 2°55.187 -999 3.427916 33.241124 21.739539
2009-04-02 14:11:53 51°31.73 2°55.166 -999 3.427709 33.25396 23.028029
2009-04-02 14:12:53 51°31.701 2°55.147 -999 3.427502 33.257936 22.679788
2009-04-02 14:13:52 51°31.673 2°55.131 -999 3.427088 33.259681 23.028029
2009-04-02 14:14:52 51°31.644 2°55.113 -999 3.42657 33.274516 21.252002
2009-04-02 14:15:52 51°31.616 2°55.094 -999 3.425638 33.280455 23.202149
2009-04-02 14:16:53 51°31.588 2°55.075 -999 3.425431 33.284443 23.306621
2009-04-02 14:17:51 51°31.566 2°55.018 -999 3.425638 33.283122 22.888733
2009-04-02 14:18:53 51°31.536 2°54.889 -999 3.426156 33.278932 18.39643
2009-04-02 14:19:53 51°31.474 2°54.706 -999 3.425638 33.267128 17.804421
2009-04-02 14:20:52 51°31.379 2°54.451 -999 3.426363 33.280277 18.117837
2009-04-02 14:21:53 51°31.268 2°54.154 -999 3.425535 33.276672 18.675022
2009-04-02 14:22:52 51°31.162 2°53.864 -999 3.427502 33.27835 18.74467
2009-04-02 14:23:52 51°31.046 2°53.586 -999 3.429056 33.288882 18.849142
2009-04-02 14:24:52 51°30.9 2°53.341 -999 3.430196 33.292282 18.152661
2009-04-02 14:25:53 51°30.727 2°53.136 -999 3.431646 33.299917 17.874069
2009-04-02 14:26:53 51°30.553 2°52.939 -999 3.432682 33.30575 18.222309
2009-04-02 14:27:53 51°30.378 2°52.736 -999 3.433303 33.307118 19.406327
2009-04-02 14:28:53 51°30.197 2°52.581 -999 3.432889 33.307094 20.03316
2009-04-02 14:29:52 51°29.994 2°52.558 -999 3.432889 33.303542 16.829347
2009-04-02 14:30:53 51°29.786 2°52.558 -999 3.432992 33.298444 16.16769
2009-04-02 14:31:52 51°29.583 2°52.556 -999 3.43351 33.294261 15.053321
2009-04-02 14:32:53 51°29.372 2°52.517 -999 3.435789 33.294848 13.41659
2009-04-02 14:33:52 51°29.167 2°52.463 -999 3.434027 33.207828 14.322015
2009-04-02 14:34:52 51°28.959 2°52.41 -999 3.429468 33.076314 15.506033
2009-04-02 14:35:52 51°28.75 2°52.354 -999 3.426049 33.023966 16.028394
2009-04-02 14:36:53 51°28.539 2°52.296 -999 3.422424 32.986044 16.620403
2009-04-02 14:37:53 51°28.328 2°52.241 -999 3.418072 32.870754 16.446283
2009-04-02 14:38:52 51°28.121 2°52.188 -999 3.415276 32.872159 16.515931
2009-04-02 14:39:53 51°27.91 2°52.132 -999 3.413101 32.862822 16.411459
2009-04-02 14:40:52 51°27.702 2°52.085 -999 3.412272 32.851359 16.272162
2009-04-02 14:41:53 51°27.487 2°52.035 -999 3.411754 32.848431 16.272162
2009-04-02 14:42:52 51°27.281 2°51.992 -999 3.409787 32.851733 17.038292
2009-04-02 14:43:52 51°27.072 2°51.95 -999 3.412273 32.924523 17.316884
2009-04-02 14:44:52 51°26.864 2°51.965 -999 3.412688 32.960427 18.083013
2009-04-02 14:45:53 51°26.653 2°51.99 -999 3.413724 32.982915 17.525828
2009-04-02 14:46:53 51°26.446 2°51.998 -999 3.411963 32.957903 17.630301
2009-04-02 14:47:51 51°26.247 2°52.007 -999 3.401085 32.694658 17.874069
2009-04-02 14:48:53 51°26.034 2°52.015 -999 3.400255 32.619474 17.665125
2009-04-02 14:49:53 51°25.829 2°52.024 -999 3.397147 32.475144 16.968644
2009-04-02 14:50:52 51°25.627 2°52.034 -999 3.395593 32.442478 16.864171
2009-04-02 14:51:52 51°25.422 2°52.053 -999 3.392279 32.452478 17.351708
2009-04-02 14:52:52 51°25.221 2°52.095 -999 3.388757 32.445797 17.525828
2009-04-02 14:53:53 51°25.014 2°52.131 -999 3.384614 32.425673 17.525828
2009-04-02 14:54:52 51°24.815 2°52.173 -999 3.379539 32.341927 17.421356
2009-04-02 14:55:52 51°24.611 2°52.215 -999 3.37581 32.326149 17.874069
2009-04-02 14:56:53 51°24.403 2°52.26 -999 3.374983 32.404368 18.709846
2009-04-02 14:57:52 51°24.202 2°52.307 -999 3.373844 32.472837 19.510799
2009-04-02 14:58:52 51°23.997 2°52.355 -999 3.372292 32.522556 20.03316
2009-04-02 14:59:52 51°23.795 2°52.41 -999 3.370427 32.531962 20.590345
2009-04-02 15:00:53 51°23.589 2°52.461 -999 3.366285 32.529943 20.659993
2009-04-02 15:01:52 51°23.389 2°52.486 -999 3.363488 32.493915 20.346577
2009-04-02 15:02:52 51°23.185 2°52.498 -999 3.347744 32.168749 18.117837
2009-04-02 15:03:52 51°22.98 2°52.494 -999 3.342875 32.024568 17.943717
2009-04-02 15:04:52 51°22.776 2°52.476 -999 3.339871 31.977488 17.769597
2009-04-02 15:05:53 51°22.569 2°52.461 -999 3.335417 31.911712 17.386532
2009-04-02 15:06:52 51°22.37 2°52.452 -999 3.332829 31.906932 17.525828
2009-04-02 15:07:53 51°22.165 2°52.447 -999 3.326719 31.871478 17.874069
2009-04-02 15:08:52 51°21.967 2°52.433 -999 3.322162 31.844082 18.048189
2009-04-02 15:09:53 51°21.762 2°52.431 -999 3.317501 31.756002 17.769597
2009-04-02 15:10:52 51°21.563 2°52.413 -999 3.31108 31.64117 17.874069
2009-04-02 15:11:53 51°21.357 2°52.378 -999 3.307559 31.615525 17.908893
2009-04-02 15:12:53 51°21.154 2°52.337 -999 3.305591 31.568913 17.28206
2009-04-02 15:13:52 51°20.953 2°52.311 -999 3.303312 31.534844 17.073116
2009-04-02 15:14:53 51°20.747 2°52.286 -999 3.304037 31.524277 16.376635
2009-04-02 15:15:52 51°20.547 2°52.252 -999 3.304969 31.551546 16.202514
2009-04-02 15:16:53 51°20.343 2°52.22 -999 3.304037 31.540026 15.958746
2009-04-02 15:17:52 51°20.145 2°52.191 -999 3.300413 31.500852 15.680154
2009-04-02 15:18:53 51°19.943 2°52.159 -999 3.295027 31.436456 14.983672
2009-04-02 15:19:52 51°19.748 2°52.127 -999 3.2884 31.368042 14.983672
2009-04-02 15:20:52 51°19.548 2°52.093 -999 3.284775 31.310804 14.8792
2009-04-02 15:21:52 51°19.351 2°52.057 -999 3.280011 31.235064 14.322015
2009-04-02 15:22:52 51°19.15 2°52.054 -999 3.273798 31.183428 14.70508
2009-04-02 15:23:53 51°18.945 2°52.058 -999 3.270173 31.123938 14.670256
2009-04-02 15:24:52 51°18.748 2°52.059 -999 3.265617 31.077533 15.088145
2009-04-02 15:25:53 51°18.544 2°52.062 -999 3.259508 31.032676 16.063218
2009-04-02 15:26:52 51°18.349 2°52.062 -999 3.255573 30.977357 17.28206
2009-04-02 15:27:53 51°18.146 2°52.068 -999 3.253708 30.921203 19.162559
2009-04-02 15:28:53 51°17.948 2°52.074 -999 3.250084 30.864456 20.520697
2009-04-02 15:29:53 51°17.748 2°52.077 -999 3.247184 30.825891 22.714612
2009-04-02 15:30:53 51°17.55 2°52.087 -999 3.242628 30.75867 25.013
2009-04-02 15:31:53 51°17.348 2°52.094 -999 3.240971 30.715555 25.570185
2009-04-02 15:32:53 51°17.151 2°52.146 -999 3.244388 30.720908 23.933454
2009-04-02 15:33:53 51°16.972 2°52.292 -999 3.246976 30.723189 22.714612
2009-04-02 15:34:52 51°16.8 2°52.446 -999 3.248529 30.721835 21.043058
2009-04-02 15:35:52 51°16.622 2°52.597 -999 3.249357 30.714498 21.112706
2009-04-02 15:36:52 51°16.445 2°52.748 -999 3.248218 30.696976 22.052955
2009-04-02 15:37:52 51°16.267 2°52.893 -999 3.242005 30.616014 24.525463
2009-04-02 15:38:53 51°16.084 2°53.033 -999 0.095931 0.706411 -0.721976
2009-04-02 15:39:53 51°15.905 2°53.174 -999 0.074215 0.540235 -0.7568
2009-04-02 15:40:52 51°15.729 2°53.316 -999 0.088932 0.652215 -0.791624
2009-04-02 15:41:53 51°15.544 2°53.454 -999 0.071848 0.521235 -0.791624
2009-04-02 15:42:52 51°15.368 2°53.591 -999 0.056514 0.405293 -0.826448
2009-04-02 15:43:53 51°15.187 2°53.732 -999 0.077714 0.562753 -0.791624
2009-04-02 15:44:53 51°15.014 2°53.881 -999 0.045399 0.322034 -0.791624
2009-04-02 15:45:53 51°14.865 2°54.085 -999 0.049207 0.349618 -0.791624
2009-04-02 15:46:53 51°14.717 2°54.295 -999 0.074112 0.535476 -0.791624
2009-04-02 15:47:53 51°14.581 2°54.525 -999 0.044267 0.312534 -0.826448
2009-04-02 15:48:53 51°14.459 2°54.781 -999 0.050442 0.358032 -0.791624
2009-04-02 15:49:52 51°14.358 2°55.053 -999 0.055794 0.397044 -0.791624
2009-04-02 15:50:53 51°14.243 2°55.27 -999 0.058572 0.417599 -0.826448
2009-04-02 15:51:56 51°14.124 2°55.407 -999 0.057852 0.41208 -0.791624
2009-04-02 15:52:57 51°13.997 2°55.5 -999 0.061454 0.4383 -0.791624
2009-04-02 15:53:56 51°13.89 2°55.578 -999 1.512652 11.774327 -0.791624
2009-04-02 15:54:57 51°13.791 2°55.664 -999 0.196179 1.359456 -0.791624
2009-04-02 15:55:56 51°13.723 2°55.776 -999 0.074935 0.495541 -0.826448
2009-04-02 15:56:57 51°13.677 2°55.889 -999 0.060424 0.393624 -0.826448
2009-04-02 15:57:57 51°13.665 2°55.953 -999 0.057748 0.375981 -0.826448